Time;durP1;ratioP1;P1;durP2;ratioP2;P2;SDS_P1;SDS_P2;PMS_P1;PMS_P2;Temp;Humidity;BMP_temperature;BMP_pressure;BME280_temperature;BME280_humidity;BME280_pressure;Samples;Min_cycle;Max_cycle;Signal;HPM_P1;HPM_P2
2022/12/30 00:01:21;;;;;;;14.43;6.67;;;;;;;7.45;78.93;99383.75;4164211;28;20294;-70
2022/12/30 00:03:49;;;;;;;13.73;6.30;;;;;;;7.52;78.88;99383.97;4166775;28;20300;-73
2022/12/30 00:06:19;;;;;;;15.13;6.33;;;;;;;7.52;78.15;99399.88;4179386;28;21474;-70
2022/12/30 00:08:47;;;;;;;13.93;6.87;;;;;;;7.40;79.17;99393.97;4169905;28;21375;-71
2022/12/30 00:11:19;;;;;;;16.07;7.07;;;;;;;7.31;79.61;99392.22;4165766;28;21798;-72
2022/12/30 00:34:16;;;;;;;13.13;6.47;;;;;;;7.05;80.93;99406.16;4177419;28;20247;-71
2022/12/30 00:36:43;;;;;;;19.57;7.33;;;;;;;6.91;81.81;99406.66;4172041;28;20311;-71
2022/12/30 00:39:10;;;;;;;17.00;7.37;;;;;;;6.76;82.76;99408.94;4175442;28;25819;-69
2022/12/30 00:44:23;;;;;;;17.37;7.53;;;;;;;6.69;82.84;99403.38;4174851;28;20226;-72
2022/12/30 00:46:50;;;;;;;18.70;7.93;;;;;;;6.69;83.44;99405.19;4178277;28;22953;-72
2022/12/30 00:57:33;;;;;;;18.87;8.27;;;;;;;6.50;84.44;99403.47;4180487;28;21204;-72
2022/12/30 00:59:59;;;;;;;14.30;6.97;;;;;;;6.57;84.06;99412.47;4172094;28;20238;-71
2022/12/30 01:02:26;;;;;;;15.33;7.50;;;;;;;6.59;83.82;99415.81;4189011;28;21257;-73
2022/12/30 01:04:53;;;;;;;12.70;6.60;;;;;;;6.62;84.14;99420.81;4161491;28;20230;-70
2022/12/30 01:07:20;;;;;;;14.57;7.60;;;;;;;6.64;82.96;99415.38;4176966;28;21864;-71
2022/12/30 01:09:47;;;;;;;15.03;6.93;;;;;;;6.62;83.62;99418.16;4159494;28;21275;-71
2022/12/30 01:12:13;;;;;;;15.63;7.43;;;;;;;6.61;83.46;99431.53;4184351;28;20346;-71
2022/12/30 01:14:51;;;;;;;14.47;6.93;;;;;;;6.68;83.26;99417.59;4188706;28;20602;-70
2022/12/30 01:17:24;;;;;;;16.80;7.40;;;;;;;6.63;83.13;99413.72;4178734;28;20247;-71
2022/12/30 01:19:50;;;;;;;16.90;6.83;;;;;;;6.68;82.89;99412.31;4172634;28;22919;-70
2022/12/30 01:22:17;;;;;;;18.87;7.63;;;;;;;6.69;83.32;99407.84;4174525;28;20248;-71
2022/12/30 01:24:45;;;;;;;16.70;7.67;;;;;;;6.70;83.03;99415.63;4168898;28;22351;-72
2022/12/30 01:27:12;;;;;;;18.43;7.37;;;;;;;6.79;82.83;99402.50;4162896;28;20279;-70
2022/12/30 01:29:40;;;;;;;14.60;7.23;;;;;;;6.68;82.79;99403.56;4180840;28;20678;-72
2022/12/30 01:32:09;;;;;;;15.67;7.23;;;;;;;6.74;82.52;99401.16;4171297;28;20246;-69
2022/12/30 01:34:37;;;;;;;15.20;7.53;;;;;;;6.78;82.95;99408.78;4159476;28;22067;-70
2022/12/30 01:37:04;;;;;;;14.30;7.40;;;;;;;6.80;82.70;99409.47;4175443;28;21095;-73
2022/12/30 01:39:31;;;;;;;15.53;7.20;;;;;;;6.74;82.77;99411.75;4184701;28;21428;-71
2022/12/30 01:41:57;;;;;;;15.93;7.07;;;;;;;6.82;82.38;99412.81;4171317;28;20237;-71
2022/12/30 01:44:49;;;;;;;15.80;7.10;;;;;;;6.74;82.30;99417.03;4170832;28;22844;-71
2022/12/30 01:47:36;;;;;;;14.67;7.07;;;;;;;6.72;82.42;99415.50;4194863;28;21226;-73
2022/12/30 01:50:16;;;;;;;15.63;7.73;;;;;;;6.55;82.98;99417.06;4167154;28;20408;-71
2022/12/30 01:53:07;;;;;;;20.57;7.77;;;;;;;6.57;83.01;99420.41;4171895;28;20237;-72
2022/12/30 01:55:48;;;;;;;17.17;8.13;;;;;;;6.55;82.81;99422.34;4195680;28;20245;-70
2022/12/30 01:58:19;;;;;;;15.30;7.50;;;;;;;6.52;83.53;99418.19;4181831;28;21170;-71
2022/12/30 02:00:45;;;;;;;18.27;7.77;;;;;;;6.48;83.48;99427.38;4165342;28;20506;-70
2022/12/30 02:03:12;;;;;;;15.83;7.37;;;;;;;6.53;83.50;99440.16;4171177;28;22776;-71
2022/12/30 02:05:41;;;;;;;15.50;7.43;;;;;;;6.51;83.88;99439.50;4170572;28;20237;-71
2022/12/30 02:08:10;;;;;;;19.03;7.53;;;;;;;6.52;83.50;99433.22;4170948;28;20332;-70
2022/12/30 02:10:37;;;;;;;16.63;8.50;;;;;;;6.48;83.36;99427.38;4181422;28;21930;-70
2022/12/30 02:13:04;;;;;;;17.47;7.70;;;;;;;6.49;83.54;99422.97;4164638;28;21280;-70
2022/12/30 02:15:38;;;;;;;15.60;7.47;;;;;;;6.50;84.16;99420.16;4164747;28;20283;-70
2022/12/30 02:18:13;;;;;;;13.23;7.30;;;;;;;6.50;83.94;99427.25;4165393;28;21112;-71
2022/12/30 02:21:12;;;;;;;16.50;7.73;;;;;;;6.49;83.36;99428.25;4179597;28;20304;-70
2022/12/30 02:23:49;;;;;;;18.30;7.47;;;;;;;6.60;83.25;99427.22;4171252;28;21480;-69
2022/12/30 02:26:44;;;;;;;14.47;7.23;;;;;;;6.54;83.30;99437.41;4178247;28;20661;-71
2022/12/30 02:29:25;;;;;;;19.40;7.67;;;;;;;6.55;83.41;99433.78;4177641;28;20338;-71
2022/12/30 02:31:56;;;;;;;19.77;7.70;;;;;;;6.47;83.74;99443.41;4185378;28;21334;-70
2022/12/30 02:34:48;;;;;;;17.93;7.93;;;;;;;6.48;83.72;99447.69;4161484;28;23660;-71
2022/12/30 02:37:23;;;;;;;19.03;7.87;;;;;;;6.52;83.13;99449.09;4185060;28;23055;-71
2022/12/30 02:40:07;;;;;;;19.83;8.17;;;;;;;6.52;83.42;99443.81;4165446;28;20304;-70
2022/12/30 02:45:38;;;;;;;19.40;7.50;;;;;;;6.53;83.01;99445.44;4175809;28;21364;-72
2022/12/30 02:48:12;;;;;;;16.77;8.07;;;;;;;6.34;83.46;99441.06;4165348;28;20303;-70
2022/12/30 02:53:28;;;;;;;15.87;7.90;;;;;;;6.28;83.66;99445.13;4184124;28;20484;-69
2022/12/30 02:55:55;;;;;;;14.17;7.50;;;;;;;6.27;84.07;99443.44;4170665;28;22057;-69
2022/12/30 02:58:24;;;;;;;17.03;8.67;;;;;;;6.21;84.60;99441.38;4176822;28;20234;-70
2022/12/30 03:04:05;;;;;;;20.73;8.97;;;;;;;6.06;84.94;99445.41;4182832;28;20319;-68
2022/12/30 03:06:49;;;;;;;14.23;7.47;;;;;;;5.97;85.03;99454.16;4169757;28;20237;-68
2022/12/30 03:11:12;;;;;;;20.13;8.97;;;;;;;5.93;85.16;99449.16;4176195;28;21727;-69
2022/12/30 03:12:46;;;;;;;21.70;8.30;;;;;;;5.96;85.53;99453.34;4181302;28;20250;-68
2022/12/30 03:15:19;;;;;;;17.67;8.23;;;;;;;5.86;85.66;99453.31;4170728;28;20245;-70
2022/12/30 03:17:47;;;;;;;16.67;8.07;;;;;;;5.87;86.34;99456.78;4181777;28;22324;-71
2022/12/30 03:20:16;;;;;;;19.37;8.87;;;;;;;5.82;86.46;99459.84;4175165;28;20304;-70
2022/12/30 03:28:17;;;;;;;18.90;8.90;;;;;;;5.72;86.73;99453.72;4175571;28;20300;-69
2022/12/30 03:30:55;;;;;;;20.23;9.23;;;;;;;5.71;86.89;99459.97;4172108;28;21374;-69
2022/12/30 03:33:22;;;;;;;18.77;8.10;;;;;;;5.74;87.23;99465.00;4172511;28;20263;-71
2022/12/30 03:35:53;;;;;;;19.63;9.20;;;;;;;5.67;87.49;99463.88;4172139;28;20268;-70
2022/12/30 03:38:24;;;;;;;20.20;9.03;;;;;;;5.60;87.68;99468.88;4173539;28;21486;-71
2022/12/30 03:40:52;;;;;;;18.13;8.50;;;;;;;5.55;87.98;99470.22;4168799;28;21214;-71
2022/12/30 03:43:19;;;;;;;17.57;8.80;;;;;;;5.56;88.37;99462.19;4186376;28;21214;-71
2022/12/30 03:45:46;;;;;;;20.47;8.73;;;;;;;5.57;88.12;99470.94;4172784;28;20225;-71
2022/12/30 03:48:13;;;;;;;20.93;9.90;;;;;;;5.59;88.05;99469.81;4175466;28;20238;-73
2022/12/30 03:50:39;;;;;;;19.07;8.60;;;;;;;5.63;87.28;99473.03;4180493;28;20222;-71
2022/12/30 03:53:06;;;;;;;24.43;10.17;;;;;;;5.64;87.85;99475.53;4169088;28;20241;-70
2022/12/30 03:55:32;;;;;;;23.47;9.53;;;;;;;5.64;87.87;99465.00;4172692;28;20285;-70
2022/12/30 03:57:59;;;;;;;19.80;8.93;;;;;;;5.59;87.47;99466.34;4173174;28;20305;-70
2022/12/30 04:00:25;;;;;;;20.73;8.43;;;;;;;5.57;88.34;99478.84;4178871;28;20285;-72
2022/12/30 04:02:52;;;;;;;18.70;9.50;;;;;;;5.57;88.04;99478.84;4156518;28;20245;-72
2022/12/30 04:05:19;;;;;;;19.57;9.40;;;;;;;5.59;87.50;99485.66;4184346;28;20291;-67
2022/12/30 04:07:45;;;;;;;19.73;9.47;;;;;;;5.55;88.01;99488.69;4178865;28;23726;-72
2022/12/30 04:10:12;;;;;;;21.57;10.00;;;;;;;5.59;88.15;99488.28;4183901;28;20234;-71
2022/12/30 04:12:39;;;;;;;17.57;8.50;;;;;;;5.57;88.13;99486.75;4171565;28;20513;-69
2022/12/30 04:15:06;;;;;;;20.20;9.60;;;;;;;5.63;87.48;99488.88;4177174;28;20374;-72
2022/12/30 04:17:33;;;;;;;19.80;9.63;;;;;;;5.52;87.79;99481.06;4175213;28;20318;-71
2022/12/30 04:19:59;;;;;;;20.43;9.10;;;;;;;5.46;88.03;99488.56;4168929;28;20230;-72
2022/12/30 04:22:26;;;;;;;21.27;9.57;;;;;;;5.44;88.73;99479.94;4172395;28;20242;-70
2022/12/30 04:24:53;;;;;;;20.77;9.47;;;;;;;5.36;88.93;99485.06;4176065;28;23438;-71
2022/12/30 04:27:23;;;;;;;20.63;9.70;;;;;;;5.38;89.09;99480.47;4174972;28;21408;-70
2022/12/30 04:29:50;;;;;;;22.63;9.77;;;;;;;5.47;88.97;99486.75;4166215;28;20416;-70
2022/12/30 04:32:17;;;;;;;21.63;10.17;;;;;;;5.37;89.05;99484.09;4164580;28;21387;-71
2022/12/30 04:34:45;;;;;;;19.20;9.53;;;;;;;5.37;88.72;99484.09;4187160;28;20402;-70
2022/12/30 04:37:11;;;;;;;19.67;9.43;;;;;;;5.34;89.49;99487.00;4177781;28;21332;-70
2022/12/30 04:39:38;;;;;;;23.80;10.77;;;;;;;5.38;89.49;99480.47;4167326;28;20916;-71
2022/12/30 04:42:05;;;;;;;21.03;9.80;;;;;;;5.45;88.71;99484.22;4168927;28;23164;-71
2022/12/30 04:44:31;;;;;;;21.20;9.60;;;;;;;5.56;88.80;99482.47;4184259;28;22137;-70
2022/12/30 04:46:58;;;;;;;18.30;9.27;;;;;;;5.58;87.93;99480.53;4172495;28;23010;-71
2022/12/30 04:49:25;;;;;;;22.87;9.77;;;;;;;5.53;88.53;99482.75;4182018;28;20234;-70
2022/12/30 04:51:51;;;;;;;24.13;10.23;;;;;;;5.60;89.19;99483.88;4166161;28;20226;-69
2022/12/30 04:54:18;;;;;;;19.17;9.60;;;;;;;5.60;88.47;99489.16;4173845;28;20636;-69
2022/12/30 04:56:45;;;;;;;21.87;9.17;;;;;;;5.48;89.11;99481.34;4171809;28;20245;-70
2022/12/30 04:59:11;;;;;;;19.80;9.13;;;;;;;5.57;89.11;99484.13;4164822;28;20412;-70
2022/12/30 05:01:38;;;;;;;22.77;9.60;;;;;;;5.48;89.45;99489.25;4173795;28;20309;-71
2022/12/30 05:04:05;;;;;;;22.60;9.47;;;;;;;5.63;89.42;99494.16;4162368;28;20832;-71
2022/12/30 05:06:32;;;;;;;20.40;9.47;;;;;;;5.59;88.95;99498.03;4171633;28;20716;-70
2022/12/30 05:08:59;;;;;;;19.63;9.13;;;;;;;5.57;89.60;99494.69;4163953;28;20429;-69
2022/12/30 05:11:25;;;;;;;21.00;8.63;;;;;;;5.48;90.36;99498.97;4172317;28;20601;-70
2022/12/30 05:13:52;;;;;;;15.67;8.43;;;;;;;5.43;90.98;99501.16;4169746;28;20230;-69
2022/12/30 05:16:18;;;;;;;21.73;9.57;;;;;;;5.52;91.00;99504.81;4187894;28;20225;-70
2022/12/30 05:18:45;;;;;;;21.77;9.00;;;;;;;5.62;90.72;99501.22;4174650;28;22140;-70
2022/12/30 05:21:12;;;;;;;19.43;8.93;;;;;;;5.81;89.30;99497.78;4169065;28;20399;-72
2022/12/30 05:26:24;;;;;;;16.60;8.43;;;;;;;5.82;89.37;99510.00;4182276;28;20923;-69
2022/12/30 05:28:50;;;;;;;18.00;8.13;;;;;;;5.85;89.12;99501.81;4160802;28;21298;-70
2022/12/30 05:31:18;;;;;;;18.63;8.60;;;;;;;5.98;88.59;99513.94;4165760;28;20246;-73
2022/12/30 05:33:45;;;;;;;18.97;8.07;;;;;;;6.05;88.49;99515.88;4154705;28;20234;-71
2022/12/30 05:36:13;;;;;;;21.30;8.63;;;;;;;5.95;88.22;99515.06;4165098;28;21853;-72
2022/12/30 05:38:39;;;;;;;20.77;7.80;;;;;;;6.06;88.25;99522.00;4163721;28;20902;-71
2022/12/30 05:41:07;;;;;;;20.63;8.57;;;;;;;6.11;88.32;99525.06;4183960;28;23331;-71
2022/12/30 05:43:41;;;;;;;20.43;7.80;;;;;;;6.19;87.38;99527.03;4176485;28;20238;-70
2022/12/30 05:46:07;;;;;;;17.80;8.70;;;;;;;6.18;87.67;99536.75;4166984;28;20324;-72
2022/12/30 05:48:34;;;;;;;17.33;8.60;;;;;;;6.24;87.74;99538.00;4179928;28;20364;-72
2022/12/30 05:51:00;;;;;;;16.17;7.83;;;;;;;6.23;87.44;99549.56;4165871;28;24243;-62
2022/12/30 05:53:27;;;;;;;17.87;8.10;;;;;;;6.28;87.81;99553.44;4185790;28;20229;-70
2022/12/30 05:55:53;;;;;;;14.17;7.87;;;;;;;6.22;88.00;99558.44;4163198;28;20253;-72
2022/12/30 05:58:20;;;;;;;16.73;8.23;;;;;;;6.20;87.67;99550.63;4170834;28;26007;-71
2022/12/30 06:00:47;;;;;;;17.17;8.10;;;;;;;6.24;87.72;99557.31;4176203;28;20234;-70
2022/12/30 06:03:13;;;;;;;17.83;7.27;;;;;;;6.32;87.24;99560.13;4166631;28;20234;-70
2022/12/30 06:05:41;;;;;;;18.47;8.27;;;;;;;6.39;86.61;99548.97;4162149;28;22600;-68
2022/12/30 06:08:09;;;;;;;18.73;7.77;;;;;;;6.34;86.82;99552.03;4166280;28;20237;-71
2022/12/30 06:10:35;;;;;;;17.63;7.77;;;;;;;6.23;87.76;99553.03;4169628;28;20322;-70
2022/12/30 06:13:02;;;;;;;15.00;7.57;;;;;;;6.29;87.72;99564.81;4179693;28;20649;-70
2022/12/30 06:15:29;;;;;;;14.20;7.63;;;;;;;6.36;87.39;99565.09;4172436;28;20367;-68
2022/12/30 06:17:55;;;;;;;15.20;7.33;;;;;;;6.40;87.20;99566.50;4168427;28;20238;-72
2022/12/30 06:20:22;;;;;;;17.43;8.13;;;;;;;6.32;87.67;99559.25;4162286;28;20242;-73
2022/12/30 06:22:49;;;;;;;17.57;7.83;;;;;;;6.15;89.32;99562.59;4168443;28;20229;-69
2022/12/30 06:25:15;;;;;;;22.47;8.87;;;;;;;6.10;89.62;99568.28;4168477;28;20416;-68
2022/12/30 06:27:42;;;;;;;15.30;7.43;;;;;;;6.07;90.30;99565.94;4168786;28;20270;-70
2022/12/30 06:30:09;;;;;;;16.90;7.40;;;;;;;6.18;89.25;99570.25;4172715;28;21138;-70
2022/12/30 06:32:36;;;;;;;16.33;7.90;;;;;;;6.18;89.49;99568.47;4166517;28;20294;-68
2022/12/30 06:35:03;;;;;;;18.57;8.53;;;;;;;6.28;89.62;99576.38;4168181;28;20368;-71
2022/12/30 06:37:29;;;;;;;18.90;8.90;;;;;;;6.30;89.47;99585.84;4175778;28;20234;-71
2022/12/30 06:39:56;;;;;;;14.90;8.00;;;;;;;6.34;89.54;99589.88;4168172;28;20238;-71
2022/12/30 06:42:22;;;;;;;18.07;7.93;;;;;;;6.20;90.43;99581.50;4170215;28;20304;-68
2022/12/30 06:44:49;;;;;;;23.07;8.33;;;;;;;6.26;90.09;99592.38;4163477;28;21739;-68
2022/12/30 06:47:16;;;;;;;19.90;8.63;;;;;;;6.29;90.51;99597.34;4201562;28;20249;-71
2022/12/30 06:49:43;;;;;;;17.03;8.30;;;;;;;6.31;90.70;99587.50;4167823;28;20372;-69
2022/12/30 06:52:09;;;;;;;20.27;8.80;;;;;;;6.36;90.25;99607.38;4173719;28;21289;-68
2022/12/30 06:54:36;;;;;;;17.03;8.60;;;;;;;6.25;90.66;99601.28;4196666;28;20255;-68
2022/12/30 06:57:03;;;;;;;16.57;8.03;;;;;;;6.36;90.51;99612.66;4179055;28;20251;-68
2022/12/30 06:59:29;;;;;;;20.30;8.03;;;;;;;6.27;90.90;99609.03;4167916;28;22018;-70
2022/12/30 07:01:56;;;;;;;14.83;7.63;;;;;;;6.21;91.54;99618.38;4172054;28;20242;-70
2022/12/30 07:04:22;;;;;;;15.67;8.33;;;;;;;6.27;91.01;99625.72;4172656;28;20244;-69
2022/12/30 07:06:49;;;;;;;18.23;8.13;;;;;;;6.31;90.53;99616.56;4173049;28;21412;-70
2022/12/30 07:09:15;;;;;;;17.90;7.97;;;;;;;6.43;90.11;99627.00;4166063;28;20238;-70
2022/12/30 07:11:42;;;;;;;17.10;8.37;;;;;;;6.39;90.30;99625.59;4166437;28;21406;-68
2022/12/30 07:14:08;;;;;;;18.53;8.00;;;;;;;6.45;90.21;99635.63;4167505;28;25761;-67
2022/12/30 07:16:35;;;;;;;16.57;7.80;;;;;;;6.43;90.87;99650.78;4175791;28;22840;-68
2022/12/30 07:19:01;;;;;;;18.33;8.23;;;;;;;6.27;91.41;99646.84;4171528;28;20735;-71
2022/12/30 07:21:28;;;;;;;16.63;7.93;;;;;;;6.30;91.63;99657.19;4170565;28;22291;-72
2022/12/30 07:23:54;;;;;;;18.00;8.50;;;;;;;6.31;90.98;99661.47;4170142;28;20261;-70
2022/12/30 07:26:21;;;;;;;21.23;8.53;;;;;;;6.28;91.90;99674.13;4184868;28;20264;-70
2022/12/30 07:28:47;;;;;;;20.13;8.00;;;;;;;6.23;92.39;99677.19;4187978;28;20228;-69
2022/12/30 07:31:19;;;;;;;18.07;8.40;;;;;;;6.20;92.55;99666.88;4165158;28;20313;-71
2022/12/30 07:33:46;;;;;;;19.93;8.07;;;;;;;6.18;92.51;99668.84;4169491;28;20242;-73
2022/12/30 07:36:13;;;;;;;25.17;9.83;;;;;;;6.26;92.34;99668.16;4169349;28;20257;-68
2022/12/30 07:38:40;;;;;;;18.50;8.93;;;;;;;6.22;92.10;99670.22;4172269;28;22593;-67
2022/12/30 07:41:06;;;;;;;23.03;8.83;;;;;;;6.17;93.12;99677.72;4168776;28;20240;-71
2022/12/30 07:43:33;;;;;;;26.23;10.47;;;;;;;6.10;92.96;99676.59;4170054;28;20234;-69
2022/12/30 07:46:07;;;;;;;25.33;9.43;;;;;;;6.08;93.37;99684.63;4178326;28;21926;-73
2022/12/30 07:48:35;;;;;;;22.60;9.73;;;;;;;6.05;94.14;99684.09;4177497;28;22958;-70
2022/12/30 07:51:13;;;;;;;19.50;8.83;;;;;;;6.10;93.67;99681.88;4215154;28;20379;-71
2022/12/30 07:53:41;;;;;;;18.60;7.90;;;;;;;6.13;94.30;99689.50;4269844;28;21038;-69
2022/12/30 07:56:10;;;;;;;22.40;8.63;;;;;;;6.06;94.54;99697.16;4280325;28;20296;-69
2022/12/30 07:58:36;;;;;;;22.43;8.83;;;;;;;6.10;93.88;99698.53;4230148;28;21171;-69
2022/12/30 08:01:04;;;;;;;20.33;8.87;;;;;;;6.15;94.27;99700.78;4198199;28;20233;-69
2022/12/30 08:03:32;;;;;;;21.83;8.50;;;;;;;6.30;93.44;99696.81;4203401;28;20882;-70
2022/12/30 08:06:13;;;;;;;20.17;7.93;;;;;;;6.26;93.77;99711.25;4198440;28;20364;-69
2022/12/30 08:08:40;;;;;;;17.00;7.57;;;;;;;6.26;93.77;99713.91;4171140;28;20250;-69
2022/12/30 08:11:09;;;;;;;21.43;7.70;;;;;;;6.25;94.28;99709.59;4178508;28;21582;-64
2022/12/30 08:13:37;;;;;;;19.27;7.50;;;;;;;6.24;93.89;99705.25;4189092;28;20236;-65
2022/12/30 08:16:15;;;;;;;20.00;7.70;;;;;;;6.25;94.09;99706.09;4193344;28;20345;-69
2022/12/30 08:18:42;;;;;;;17.63;6.63;;;;;;;6.29;93.82;99710.16;4202363;28;20592;-64
2022/12/30 08:21:13;;;;;;;16.40;6.90;;;;;;;6.39;93.88;99720.72;4166190;28;20232;-65
2022/12/30 08:23:42;;;;;;;13.97;6.73;;;;;;;6.41;93.66;99726.72;4189614;28;20343;-66
2022/12/30 08:26:22;;;;;;;17.60;6.47;;;;;;;6.41;92.84;99727.56;4162025;28;23005;-62
2022/12/30 08:28:48;;;;;;;15.20;7.03;;;;;;;6.37;93.23;99727.94;4185497;28;21287;-68
2022/12/30 08:31:21;;;;;;;15.87;6.67;;;;;;;6.34;93.42;99729.94;4170365;28;20242;-68
2022/12/30 08:33:48;;;;;;;17.83;6.83;;;;;;;6.28;93.67;99730.44;4174373;28;21919;-63
2022/12/30 08:36:17;;;;;;;14.60;7.47;;;;;;;6.28;94.44;99730.44;4180292;28;20259;-65
2022/12/30 08:38:50;;;;;;;15.43;6.83;;;;;;;6.35;94.18;99749.25;4175279;28;20264;-65
2022/12/30 08:41:20;;;;;;;18.87;7.00;;;;;;;6.40;93.35;99756.78;4185986;28;20230;-67
2022/12/30 08:43:48;;;;;;;18.83;7.60;;;;;;;6.34;93.54;99761.63;4185676;28;23723;-65
2022/12/30 08:46:15;;;;;;;19.97;7.53;;;;;;;6.40;93.91;99764.69;4194429;28;20296;-65
2022/12/30 08:48:42;;;;;;;19.93;8.37;;;;;;;6.37;93.54;99762.31;4191060;28;20234;-63
2022/12/30 08:51:09;;;;;;;20.90;7.13;;;;;;;6.51;93.14;99759.31;4208867;28;21123;-64
2022/12/30 08:53:36;;;;;;;15.40;6.97;;;;;;;6.60;92.78;99763.75;4221601;28;20403;-66
2022/12/30 08:56:10;;;;;;;14.90;7.10;;;;;;;6.74;92.18;99765.19;4225099;28;20742;-67
2022/12/30 08:58:37;;;;;;;17.37;6.30;;;;;;;6.93;91.63;99772.28;4211942;28;20244;-65
2022/12/30 09:01:12;;;;;;;15.33;6.73;;;;;;;7.32;89.55;99769.66;4219760;28;22946;-66
2022/12/30 09:03:41;;;;;;;13.13;6.00;;;;;;;8.33;85.40;99780.53;4217359;28;20245;-66
2022/12/30 09:06:09;;;;;;;18.43;6.13;;;;;;;10.14;75.43;99799.81;4213768;28;20286;-67
2022/12/30 09:08:36;;;;;;;11.87;5.70;;;;;;;10.80;71.26;99816.09;4231234;28;20285;-67
2022/12/30 09:11:07;;;;;;;12.77;5.73;;;;;;;12.07;65.63;99833.50;4203796;28;20453;-66
2022/12/30 09:13:36;;;;;;;12.53;5.17;;;;;;;13.04;59.96;99845.66;4222683;28;21823;-64
2022/12/30 09:16:07;;;;;;;16.77;5.67;;;;;;;13.58;57.51;99846.66;4188046;28;21226;-66
2022/12/30 09:18:34;;;;;;;12.10;5.47;;;;;;;12.30;60.51;99830.97;4228674;28;22191;-68
2022/12/30 09:21:02;;;;;;;16.37;5.80;;;;;;;12.01;62.88;99832.34;4198899;28;20226;-65
2022/12/30 09:23:29;;;;;;;14.60;5.37;;;;;;;11.96;62.27;99827.53;4209898;28;20654;-66
2022/12/30 09:25:57;;;;;;;15.33;6.27;;;;;;;12.10;62.43;99830.50;4185265;28;20231;-64
2022/12/30 09:28:24;;;;;;;19.67;6.77;;;;;;;12.16;62.29;99824.50;4209084;28;21870;-65
2022/12/30 09:30:50;;;;;;;11.90;5.10;;;;;;;11.92;61.98;99828.03;4231574;28;20236;-66
2022/12/30 09:33:17;;;;;;;15.23;5.47;;;;;;;12.05;62.60;99825.66;4211927;28;20344;-67
2022/12/30 09:35:44;;;;;;;18.53;6.43;;;;;;;12.27;61.42;99825.94;4195796;28;20237;-65
2022/12/30 09:38:11;;;;;;;20.03;7.00;;;;;;;11.78;62.35;99830.34;4220489;28;20711;-68
2022/12/30 10:04:55;;;;;;;10.97;3.70;;;;;;;13.48;54.40;99842.38;5617315;21;1267535;-71
2022/12/30 10:07:41;;;;;;;10.20;3.40;;;;;;;14.52;50.91;99839.09;5146047;22;20206;-72
2022/12/30 10:10:18;;;;;;;13.70;4.10;;;;;;;13.10;54.54;99844.13;5172104;22;20201;-72
2022/12/30 10:13:15;;;;;;;11.30;4.00;;;;;;;13.57;54.34;99850.38;5155825;22;20219;-71
2022/12/30 10:16:16;;;;;;;10.80;3.53;;;;;;;14.15;52.93;99855.03;5225643;22;20198;-75
2022/12/30 10:18:54;;;;;;;10.10;3.53;;;;;;;13.39;53.61;99864.00;5144327;22;21967;-70
2022/12/30 10:21:40;;;;;;;9.93;3.30;;;;;;;13.93;52.22;99870.13;5166694;22;20618;-68
2022/12/30 10:24:38;;;;;;;10.17;3.67;;;;;;;13.24;54.80;99877.28;5157822;22;20652;-68
2022/12/30 10:27:20;;;;;;;7.63;3.27;;;;;;;14.00;52.68;99874.72;5184411;22;20227;-67
2022/12/30 10:29:47;;;;;;;8.20;3.47;;;;;;;13.11;54.53;99867.19;5151033;22;20202;-68
2022/12/30 10:32:25;;;;;;;8.63;3.30;;;;;;;14.22;50.83;99876.53;5146677;22;20263;-69
2022/12/30 10:35:15;;;;;;;10.53;3.40;;;;;;;15.43;47.62;99881.63;5135146;22;20548;-68
2022/12/30 10:37:42;;;;;;;10.80;2.83;;;;;;;13.75;51.47;99876.81;5196566;22;20228;-71
2022/12/30 10:40:13;;;;;;;11.40;3.43;;;;;;;13.72;53.16;99881.50;5153162;22;20202;-68
2022/12/30 10:43:27;;;;;;;7.30;3.20;;;;;;;14.21;50.65;99885.59;5170624;23;20216;-68
2022/12/30 10:45:54;;;;;;;8.13;2.50;;;;;;;13.18;52.80;99872.63;5169948;23;20206;-71
2022/12/30 10:48:51;;;;;;;11.23;3.30;;;;;;;13.01;54.15;99861.19;5192860;23;21161;-70
2022/12/30 10:51:24;;;;;;;11.53;3.40;;;;;;;12.40;56.47;99866.28;5154419;23;20371;-71
2022/12/30 10:53:52;;;;;;;8.67;3.03;;;;;;;12.62;55.82;99868.22;5173769;23;21698;-71
2022/12/30 10:56:26;;;;;;;8.97;3.03;;;;;;;12.73;55.09;99864.31;5145878;23;20400;-68
2022/12/30 10:59:04;;;;;;;10.97;3.37;;;;;;;13.56;51.34;99870.09;5180266;23;22806;-70
2022/12/30 11:01:33;;;;;;;11.50;3.00;;;;;;;12.95;53.16;99870.75;5148553;23;20205;-71
2022/12/30 11:04:01;;;;;;;12.97;2.57;;;;;;;12.62;54.56;99876.22;5124810;22;21638;-71
2022/12/30 11:06:36;;;;;;;15.57;3.10;;;;;;;13.24;51.69;99882.63;5186653;22;22677;-69
2022/12/30 11:09:26;;;;;;;8.17;2.77;;;;;;;13.03;51.28;99886.72;5140595;23;20935;-71
2022/12/30 11:15:11;;;;;;;10.13;2.57;;;;;;;9.37;64.18;99873.13;5225351;22;22885;-72
2022/12/30 11:17:49;;;;;;;7.20;2.83;;;;;;;8.70;67.00;99875.19;5201359;22;20273;-74
2022/12/30 11:20:15;;;;;;;8.17;2.90;;;;;;;8.61;67.46;99874.22;5218238;22;20202;-70
2022/12/30 11:22:53;;;;;;;9.07;2.80;;;;;;;8.32;69.28;99879.63;5222364;22;22562;-74
2022/12/30 11:25:29;;;;;;;10.17;3.10;;;;;;;8.33;69.86;99882.13;5142871;22;20336;-73
2022/12/30 11:27:59;;;;;;;10.37;2.97;;;;;;;8.34;70.39;99886.44;5186901;22;20580;-72
2022/12/30 11:30:28;;;;;;;10.33;2.90;;;;;;;8.23;70.31;99895.41;5146964;22;23106;-72
2022/12/30 11:32:58;;;;;;;14.63;2.53;;;;;;;8.33;70.25;99892.72;5136420;22;20216;-70
2022/12/30 11:35:35;;;;;;;8.57;2.53;;;;;;;8.29;70.34;99894.00;5156364;22;21358;-73
2022/12/30 11:38:29;;;;;;;8.50;2.40;;;;;;;8.29;69.83;99895.78;5207378;22;20372;-73
2022/12/30 11:40:56;;;;;;;11.90;2.73;;;;;;;8.22;71.28;99904.34;5191098;22;20722;-71
2022/12/30 11:43:23;;;;;;;11.70;2.47;;;;;;;8.33;70.79;99897.19;5174447;22;23389;-71
2022/12/30 11:46:02;;;;;;;9.70;3.00;;;;;;;8.21;71.41;99900.00;5136345;22;21231;-70
2022/12/30 11:48:33;;;;;;;10.33;2.60;;;;;;;8.19;71.39;99901.97;5169993;22;21078;-70
2022/12/30 11:51:03;;;;;;;11.77;2.70;;;;;;;8.25;71.41;99905.88;5139760;22;20202;-71
2022/12/30 11:53:32;;;;;;;11.63;3.13;;;;;;;8.10;72.58;99901.97;5143541;22;21090;-70
2022/12/30 11:55:59;;;;;;;10.90;3.20;;;;;;;8.14;73.12;99903.38;5121926;22;21625;-70
2022/12/30 11:58:26;;;;;;;15.67;3.20;;;;;;;8.04;73.47;99909.53;5139652;22;20232;-71
2022/12/30 12:01:03;;;;;;;14.00;3.27;;;;;;;8.02;74.04;99906.16;5156761;22;22333;-70
2022/12/30 12:03:30;;;;;;;9.60;3.30;;;;;;;8.13;74.69;99904.38;5147220;22;20198;-71
2022/12/30 12:06:07;;;;;;;12.13;3.17;;;;;;;8.10;74.43;99899.31;5175728;22;20202;-70
2022/12/30 12:09:04;;;;;;;11.07;2.63;;;;;;;8.03;74.12;99897.25;5179498;22;20206;-68
2022/12/30 12:11:37;;;;;;;11.80;2.60;;;;;;;8.00;74.07;99902.00;5197494;22;20554;-71
2022/12/30 12:14:22;;;;;;;12.43;2.77;;;;;;;7.99;74.00;99909.13;5152289;22;20242;-73
2022/12/30 12:17:24;;;;;;;12.63;2.87;;;;;;;8.02;74.82;99908.81;5157662;22;22640;-72
2022/12/30 12:20:05;;;;;;;11.43;2.93;;;;;;;7.99;74.57;99910.94;5197523;22;22885;-69
2022/12/30 12:22:43;;;;;;;14.87;3.20;;;;;;;8.03;74.39;99917.63;5132952;22;20254;-72
2022/12/30 12:25:25;;;;;;;9.80;2.87;;;;;;;8.19;74.38;99920.53;5170919;22;20213;-70
2022/12/30 12:27:52;;;;;;;9.70;2.93;;;;;;;8.12;74.63;99911.44;5165596;22;20210;-71
2022/12/30 12:30:19;;;;;;;10.17;2.70;;;;;;;8.12;74.33;99921.22;5171181;22;20437;-69
2022/12/30 12:32:59;;;;;;;10.47;2.60;;;;;;;8.03;74.60;99921.13;5191146;22;20269;-71
2022/12/30 12:35:33;;;;;;;7.70;2.90;;;;;;;8.03;74.32;99912.34;5135613;22;20683;-72
2022/12/30 12:38:28;;;;;;;13.27;3.10;;;;;;;7.96;74.65;99909.41;5153602;22;20203;-70
2022/12/30 12:40:57;;;;;;;17.13;3.13;;;;;;;7.96;74.93;99908.53;5162707;22;22185;-68
2022/12/30 12:43:53;;;;;;;10.57;2.97;;;;;;;7.99;74.98;99917.06;5166097;22;20259;-68
2022/12/30 12:46:54;;;;;;;10.07;2.40;;;;;;;8.02;75.32;99916.78;5161090;22;20321;-67
2022/12/30 12:49:42;;;;;;;9.47;2.90;;;;;;;8.02;75.77;99916.78;5146776;22;21410;-67
2022/12/30 12:52:21;;;;;;;12.63;2.97;;;;;;;7.95;76.63;99918.31;5148249;22;21070;-68
2022/12/30 12:54:50;;;;;;;18.30;3.20;;;;;;;7.98;76.71;99914.53;5116044;22;23217;-67
2022/12/30 12:57:29;;;;;;;13.43;2.53;;;;;;;7.94;76.98;99919.31;5118285;22;20229;-67
2022/12/30 13:00:08;;;;;;;10.37;3.13;;;;;;;7.99;76.46;99916.22;5113238;22;20298;-69
2022/12/30 13:03:25;;;;;;;10.57;2.67;;;;;;;7.81;77.65;99908.97;5136531;22;20202;-68
2022/12/30 13:06:00;;;;;;;14.67;3.10;;;;;;;7.68;78.93;99912.88;5109946;22;20646;-66
2022/12/30 13:09:08;;;;;;;10.10;3.00;;;;;;;7.64;80.33;99911.50;5125325;22;21274;-66